sensor_id;sensor_type;location;lat;lon;timestamp;pressure;altitude;pressure_sealevel;temperature;humidity
12203;BME280;6164;42.178;24.622;2022-09-12T00:01:15;99367.16;;;18.32;100.00
12203;BME280;6164;42.178;24.622;2022-09-12T00:03:42;99372.25;;;18.33;100.00
12203;BME280;6164;42.178;24.622;2022-09-12T00:06:09;99363.69;;;18.31;100.00
12203;BME280;6164;42.178;24.622;2022-09-12T00:08:36;99355.00;;;18.36;100.00
12203;BME280;6164;42.178;24.622;2022-09-12T00:11:03;99345.91;;;18.37;100.00
12203;BME280;6164;42.178;24.622;2022-09-12T00:13:30;99349.41;;;18.37;100.00
12203;BME280;6164;42.178;24.622;2022-09-12T00:15:56;99349.41;;;18.37;100.00
12203;BME280;6164;42.178;24.622;2022-09-12T00:18:24;99359.91;;;18.39;100.00
12203;BME280;6164;42.178;24.622;2022-09-12T00:20:51;99361.16;;;18.36;100.00
12203;BME280;6164;42.178;24.622;2022-09-12T00:23:17;99362.63;;;18.32;100.00
12203;BME280;6164;42.178;24.622;2022-09-12T00:25:44;99376.81;;;18.33;100.00
12203;BME280;6164;42.178;24.622;2022-09-12T00:28:11;99388.53;;;18.32;100.00
12203;BME280;6164;42.178;24.622;2022-09-12T00:30:39;99384.84;;;18.33;100.00
12203;BME280;6164;42.178;24.622;2022-09-12T00:33:05;99381.72;;;18.36;100.00
12203;BME280;6164;42.178;24.622;2022-09-12T00:35:33;99388.63;;;18.44;100.00
12203;BME280;6164;42.178;24.622;2022-09-12T00:38:00;99374.63;;;18.48;100.00
12203;BME280;6164;42.178;24.622;2022-09-12T00:40:26;99368.22;;;18.49;100.00
12203;BME280;6164;42.178;24.622;2022-09-12T00:42:53;99362.19;;;18.54;100.00
12203;BME280;6164;42.178;24.622;2022-09-12T00:45:22;99364.88;;;18.54;100.00
12203;BME280;6164;42.178;24.622;2022-09-12T00:47:49;99353.28;;;18.60;100.00
12203;BME280;6164;42.178;24.622;2022-09-12T00:50:15;99349.72;;;18.66;100.00
12203;BME280;6164;42.178;24.622;2022-09-12T00:52:45;99358.09;;;18.69;100.00
12203;BME280;6164;42.178;24.622;2022-09-12T00:55:14;99354.59;;;18.69;100.00
12203;BME280;6164;42.178;24.622;2022-09-12T00:57:42;99361.53;;;18.58;100.00
12203;BME280;6164;42.178;24.622;2022-09-12T01:00:11;99358.50;;;18.55;100.00
12203;BME280;6164;42.178;24.622;2022-09-12T01:02:40;99353.00;;;18.50;100.00
12203;BME280;6164;42.178;24.622;2022-09-12T01:05:07;99362.72;;;18.44;100.00
12203;BME280;6164;42.178;24.622;2022-09-12T01:07:34;99360.75;;;18.40;100.00
12203;BME280;6164;42.178;24.622;2022-09-12T01:10:02;99352.75;;;18.33;100.00
12203;BME280;6164;42.178;24.622;2022-09-12T01:12:28;99355.28;;;18.28;100.00
12203;BME280;6164;42.178;24.622;2022-09-12T01:14:56;99358.34;;;18.31;100.00
12203;BME280;6164;42.178;24.622;2022-09-12T01:17:23;99355.66;;;18.31;100.00
12203;BME280;6164;42.178;24.622;2022-09-12T01:22:56;99345.47;;;18.22;100.00
12203;BME280;6164;42.178;24.622;2022-09-12T01:25:31;99350.53;;;18.30;100.00
12203;BME280;6164;42.178;24.622;2022-09-12T01:28:09;99345.44;;;18.28;100.00
12203;BME280;6164;42.178;24.622;2022-09-12T01:30:46;99334.00;;;18.21;100.00
12203;BME280;6164;42.178;24.622;2022-09-12T01:36:06;99336.88;;;18.20;100.00
12203;BME280;6164;42.178;24.622;2022-09-12T01:38:37;99329.31;;;18.17;100.00
12203;BME280;6164;42.178;24.622;2022-09-12T01:41:07;99333.91;;;18.10;100.00
12203;BME280;6164;42.178;24.622;2022-09-12T01:43:39;99332.50;;;18.07;100.00
12203;BME280;6164;42.178;24.622;2022-09-12T01:46:17;99327.59;;;18.04;100.00
12203;BME280;6164;42.178;24.622;2022-09-12T01:48:45;99324.31;;;18.02;100.00
12203;BME280;6164;42.178;24.622;2022-09-12T01:51:16;99324.19;;;17.97;100.00
12203;BME280;6164;42.178;24.622;2022-09-12T01:53:45;99323.69;;;17.89;100.00
12203;BME280;6164;42.178;24.622;2022-09-12T01:56:17;99322.47;;;17.85;100.00
12203;BME280;6164;42.178;24.622;2022-09-12T01:58:46;99319.41;;;17.81;100.00
12203;BME280;6164;42.178;24.622;2022-09-12T02:01:18;99320.53;;;17.74;100.00
12203;BME280;6164;42.178;24.622;2022-09-12T02:03:47;99323.06;;;17.69;100.00
12203;BME280;6164;42.178;24.622;2022-09-12T02:06:17;99318.56;;;17.63;100.00
12203;BME280;6164;42.178;24.622;2022-09-12T02:08:46;99321.06;;;17.64;100.00
12203;BME280;6164;42.178;24.622;2022-09-12T02:11:13;99320.44;;;17.62;100.00
12203;BME280;6164;42.178;24.622;2022-09-12T02:13:41;99317.78;;;17.62;100.00
12203;BME280;6164;42.178;24.622;2022-09-12T02:16:08;99308.78;;;17.57;100.00
12203;BME280;6164;42.178;24.622;2022-09-12T02:18:37;99307.16;;;17.56;100.00
12203;BME280;6164;42.178;24.622;2022-09-12T02:21:04;99309.84;;;17.56;100.00
12203;BME280;6164;42.178;24.622;2022-09-12T02:23:31;99303.22;;;17.58;100.00
12203;BME280;6164;42.178;24.622;2022-09-12T02:26:01;99306.78;;;17.52;100.00
12203;BME280;6164;42.178;24.622;2022-09-12T02:28:29;99299.16;;;17.56;100.00
12203;BME280;6164;42.178;24.622;2022-09-12T02:30:58;99301.22;;;17.54;100.00
12203;BME280;6164;42.178;24.622;2022-09-12T02:33:26;99294.91;;;17.48;100.00
12203;BME280;6164;42.178;24.622;2022-09-12T02:35:59;99297.13;;;17.51;100.00
12203;BME280;6164;42.178;24.622;2022-09-12T02:38:28;99300.78;;;17.57;100.00
12203;BME280;6164;42.178;24.622;2022-09-12T02:40:58;99291.47;;;17.66;100.00
12203;BME280;6164;42.178;24.622;2022-09-12T02:43:25;99289.97;;;17.70;100.00
12203;BME280;6164;42.178;24.622;2022-09-12T02:45:51;99286.91;;;17.66;100.00
12203;BME280;6164;42.178;24.622;2022-09-12T02:48:19;99285.91;;;17.67;100.00
12203;BME280;6164;42.178;24.622;2022-09-12T02:50:46;99278.13;;;17.66;100.00
12203;BME280;6164;42.178;24.622;2022-09-12T02:53:14;99266.91;;;17.57;100.00
12203;BME280;6164;42.178;24.622;2022-09-12T02:55:40;99275.19;;;17.49;100.00
12203;BME280;6164;42.178;24.622;2022-09-12T02:58:09;99282.63;;;17.41;100.00
12203;BME280;6164;42.178;24.622;2022-09-12T03:00:38;99286.59;;;17.32;100.00
12203;BME280;6164;42.178;24.622;2022-09-12T03:03:19;99284.81;;;17.26;100.00
12203;BME280;6164;42.178;24.622;2022-09-12T03:05:54;99284.25;;;17.17;100.00
12203;BME280;6164;42.178;24.622;2022-09-12T03:13:59;99289.59;;;17.17;100.00
12203;BME280;6164;42.178;24.622;2022-09-12T03:16:32;99286.09;;;17.17;100.00
12203;BME280;6164;42.178;24.622;2022-09-12T03:19:02;99285.53;;;17.15;100.00
12203;BME280;6164;42.178;24.622;2022-09-12T03:21:32;99285.31;;;17.16;100.00
12203;BME280;6164;42.178;24.622;2022-09-12T03:24:03;99284.50;;;17.16;100.00
12203;BME280;6164;42.178;24.622;2022-09-12T03:26:34;99287.81;;;17.11;100.00
12203;BME280;6164;42.178;24.622;2022-09-12T03:29:04;99280.81;;;17.10;100.00
12203;BME280;6164;42.178;24.622;2022-09-12T03:31:32;99283.31;;;17.05;100.00
12203;BME280;6164;42.178;24.622;2022-09-12T03:33:59;99286.25;;;16.97;100.00
12203;BME280;6164;42.178;24.622;2022-09-12T03:36:26;99289.38;;;16.94;100.00
12203;BME280;6164;42.178;24.622;2022-09-12T03:38:53;99283.88;;;16.89;100.00
12203;BME280;6164;42.178;24.622;2022-09-12T03:41:20;99286.19;;;16.79;100.00
12203;BME280;6164;42.178;24.622;2022-09-12T03:43:46;99277.06;;;16.68;100.00
12203;BME280;6164;42.178;24.622;2022-09-12T03:46:14;99280.56;;;16.62;100.00
12203;BME280;6164;42.178;24.622;2022-09-12T03:48:41;99280.34;;;16.64;100.00
12203;BME280;6164;42.178;24.622;2022-09-12T03:51:08;99289.19;;;16.58;100.00
12203;BME280;6164;42.178;24.622;2022-09-12T03:53:35;99288.63;;;16.49;100.00
12203;BME280;6164;42.178;24.622;2022-09-12T03:56:04;99287.84;;;16.42;100.00
12203;BME280;6164;42.178;24.622;2022-09-12T03:58:31;99287.66;;;16.37;100.00
12203;BME280;6164;42.178;24.622;2022-09-12T04:00:58;99292.19;;;16.30;100.00
12203;BME280;6164;42.178;24.622;2022-09-12T04:03:25;99279.25;;;16.34;100.00
12203;BME280;6164;42.178;24.622;2022-09-12T04:05:52;99287.66;;;16.37;100.00
12203;BME280;6164;42.178;24.622;2022-09-12T04:08:18;99278.84;;;16.37;100.00
12203;BME280;6164;42.178;24.622;2022-09-12T04:10:45;99294.00;;;16.36;100.00
12203;BME280;6164;42.178;24.622;2022-09-12T04:13:11;99296.88;;;16.35;100.00
12203;BME280;6164;42.178;24.622;2022-09-12T04:15:38;99304.88;;;16.28;100.00
12203;BME280;6164;42.178;24.622;2022-09-12T04:18:04;99310.66;;;16.25;100.00
12203;BME280;6164;42.178;24.622;2022-09-12T04:20:32;99320.47;;;16.25;100.00
12203;BME280;6164;42.178;24.622;2022-09-12T04:22:59;99312.47;;;16.25;100.00
12203;BME280;6164;42.178;24.622;2022-09-12T04:25:25;99321.53;;;16.24;100.00
12203;BME280;6164;42.178;24.622;2022-09-12T04:27:52;99323.16;;;16.18;100.00
12203;BME280;6164;42.178;24.622;2022-09-12T04:30:18;99324.22;;;16.17;100.00
12203;BME280;6164;42.178;24.622;2022-09-12T04:32:45;99318.66;;;16.19;100.00
12203;BME280;6164;42.178;24.622;2022-09-12T04:35:11;99321.72;;;16.22;100.00
12203;BME280;6164;42.178;24.622;2022-09-12T04:37:39;99318.63;;;16.25;100.00
12203;BME280;6164;42.178;24.622;2022-09-12T04:40:06;99316.59;;;16.27;100.00
12203;BME280;6164;42.178;24.622;2022-09-12T04:42:33;99323.31;;;16.30;100.00
12203;BME280;6164;42.178;24.622;2022-09-12T04:44:59;99323.09;;;16.31;100.00
12203;BME280;6164;42.178;24.622;2022-09-12T04:47:28;99326.81;;;16.30;100.00
12203;BME280;6164;42.178;24.622;2022-09-12T04:49:54;99323.94;;;16.32;100.00
12203;BME280;6164;42.178;24.622;2022-09-12T04:52:21;99333.94;;;16.36;100.00
12203;BME280;6164;42.178;24.622;2022-09-12T04:54:48;99328.84;;;16.35;100.00
12203;BME280;6164;42.178;24.622;2022-09-12T04:57:15;99335.97;;;16.41;100.00
12203;BME280;6164;42.178;24.622;2022-09-12T04:59:41;99331.69;;;16.46;100.00
12203;BME280;6164;42.178;24.622;2022-09-12T05:02:08;99339.66;;;16.53;100.00
12203;BME280;6164;42.178;24.622;2022-09-12T05:04:34;99328.78;;;16.54;100.00
12203;BME280;6164;42.178;24.622;2022-09-12T05:07:01;99335.94;;;16.60;100.00
12203;BME280;6164;42.178;24.622;2022-09-12T05:09:27;99335.09;;;16.66;100.00
12203;BME280;6164;42.178;24.622;2022-09-12T05:11:55;99340.16;;;16.74;100.00
12203;BME280;6164;42.178;24.622;2022-09-12T05:14:22;99339.50;;;16.79;100.00
12203;BME280;6164;42.178;24.622;2022-09-12T05:16:48;99336.03;;;16.78;100.00
12203;BME280;6164;42.178;24.622;2022-09-12T05:19:15;99338.03;;;16.89;100.00
12203;BME280;6164;42.178;24.622;2022-09-12T05:21:41;99328.75;;;16.92;100.00
12203;BME280;6164;42.178;24.622;2022-09-12T05:24:08;99326.47;;;16.95;100.00
12203;BME280;6164;42.178;24.622;2022-09-12T05:26:35;99324.59;;;17.02;100.00
12203;BME280;6164;42.178;24.622;2022-09-12T05:29:03;99321.28;;;17.07;100.00
12203;BME280;6164;42.178;24.622;2022-09-12T05:31:31;99333.94;;;17.18;100.00
12203;BME280;6164;42.178;24.622;2022-09-12T05:33:57;99316.28;;;17.17;100.00
12203;BME280;6164;42.178;24.622;2022-09-12T05:36:24;99312.53;;;17.25;100.00
12203;BME280;6164;42.178;24.622;2022-09-12T05:38:51;99310.63;;;17.32;100.00
12203;BME280;6164;42.178;24.622;2022-09-12T05:41:18;99309.31;;;17.41;100.00
12203;BME280;6164;42.178;24.622;2022-09-12T05:43:45;99307.47;;;17.41;100.00
12203;BME280;6164;42.178;24.622;2022-09-12T05:48:43;99303.94;;;17.47;100.00
12203;BME280;6164;42.178;24.622;2022-09-12T05:51:10;99300.41;;;17.53;100.00
12203;BME280;6164;42.178;24.622;2022-09-12T05:53:37;99303.91;;;17.54;100.00
12203;BME280;6164;42.178;24.622;2022-09-12T05:56:05;99307.91;;;17.63;100.00
12203;BME280;6164;42.178;24.622;2022-09-12T05:58:32;99304.16;;;17.70;100.00
12203;BME280;6164;42.178;24.622;2022-09-12T06:01:02;99294.94;;;17.84;100.00
12203;BME280;6164;42.178;24.622;2022-09-12T06:03:29;99298.59;;;17.90;100.00
12203;BME280;6164;42.178;24.622;2022-09-12T06:05:59;99302.63;;;17.99;100.00
12203;BME280;6164;42.178;24.622;2022-09-12T06:08:26;99299.66;;;18.07;100.00
12203;BME280;6164;42.178;24.622;2022-09-12T06:10:57;99292.56;;;18.12;100.00
12203;BME280;6164;42.178;24.622;2022-09-12T06:13:23;99304.59;;;18.21;100.00
12203;BME280;6164;42.178;24.622;2022-09-12T06:15:49;99294.44;;;18.30;100.00
12203;BME280;6164;42.178;24.622;2022-09-12T06:18:16;99291.00;;;18.41;100.00
12203;BME280;6164;42.178;24.622;2022-09-12T06:20:42;99283.97;;;18.47;100.00
12203;BME280;6164;42.178;24.622;2022-09-12T06:23:10;99281.09;;;18.60;100.00
12203;BME280;6164;42.178;24.622;2022-09-12T06:25:37;99281.16;;;18.71;100.00
12203;BME280;6164;42.178;24.622;2022-09-12T06:28:03;99285.56;;;18.77;100.00
12203;BME280;6164;42.178;24.622;2022-09-12T06:30:30;99288.28;;;18.89;100.00
12203;BME280;6164;42.178;24.622;2022-09-12T06:32:57;99278.31;;;18.96;99.92
12203;BME280;6164;42.178;24.622;2022-09-12T06:35:23;99280.19;;;19.07;100.00
12203;BME280;6164;42.178;24.622;2022-09-12T06:37:49;99287.63;;;19.16;99.06
12203;BME280;6164;42.178;24.622;2022-09-12T06:40:17;99277.31;;;19.31;99.30
12203;BME280;6164;42.178;24.622;2022-09-12T06:42:44;99280.59;;;19.45;98.71
12203;BME280;6164;42.178;24.622;2022-09-12T06:45:10;99276.28;;;19.44;90.66
12203;BME280;6164;42.178;24.622;2022-09-12T06:47:40;99268.94;;;19.51;92.04
12203;BME280;6164;42.178;24.622;2022-09-12T06:50:07;99274.66;;;19.54;89.62
12203;BME280;6164;42.178;24.622;2022-09-12T06:52:33;99281.84;;;19.65;89.78
12203;BME280;6164;42.178;24.622;2022-09-12T06:55:00;99272.19;;;19.76;91.46
12203;BME280;6164;42.178;24.622;2022-09-12T06:57:28;99284.63;;;19.82;87.55
12203;BME280;6164;42.178;24.622;2022-09-12T06:59:55;99278.81;;;19.85;86.03
12203;BME280;6164;42.178;24.622;2022-09-12T07:02:22;99286.38;;;20.00;87.83
12203;BME280;6164;42.178;24.622;2022-09-12T07:04:49;99275.53;;;20.18;86.27
12203;BME280;6164;42.178;24.622;2022-09-12T07:07:16;99279.00;;;20.18;82.13
12203;BME280;6164;42.178;24.622;2022-09-12T07:09:43;99274.44;;;20.30;84.33
12203;BME280;6164;42.178;24.622;2022-09-12T07:12:09;99274.53;;;20.35;83.29
12203;BME280;6164;42.178;24.622;2022-09-12T07:14:37;99269.28;;;20.40;82.74
12203;BME280;6164;42.178;24.622;2022-09-12T07:17:04;99265.97;;;20.50;84.52
12203;BME280;6164;42.178;24.622;2022-09-12T07:19:31;99276.50;;;20.68;84.33
12203;BME280;6164;42.178;24.622;2022-09-12T07:21:57;99277.31;;;20.68;80.54
12203;BME280;6164;42.178;24.622;2022-09-12T07:24:24;99274.97;;;20.72;81.33
12203;BME280;6164;42.178;24.622;2022-09-12T07:26:50;99276.38;;;20.91;80.41
12203;BME280;6164;42.178;24.622;2022-09-12T07:29:17;99280.41;;;21.05;79.67
12203;BME280;6164;42.178;24.622;2022-09-12T07:31:45;99278.09;;;21.14;74.59
12203;BME280;6164;42.178;24.622;2022-09-12T07:34:11;99277.66;;;21.17;75.63
12203;BME280;6164;42.178;24.622;2022-09-12T07:36:38;99277.81;;;21.27;72.76
12203;BME280;6164;42.178;24.622;2022-09-12T07:39:05;99277.56;;;21.28;69.13
12203;BME280;6164;42.178;24.622;2022-09-12T07:41:31;99270.78;;;21.42;71.59
12203;BME280;6164;42.178;24.622;2022-09-12T07:43:59;99270.03;;;21.47;67.61
12203;BME280;6164;42.178;24.622;2022-09-12T07:46:26;99272.47;;;21.48;67.22
12203;BME280;6164;42.178;24.622;2022-09-12T07:48:55;99276.06;;;21.54;66.56
12203;BME280;6164;42.178;24.622;2022-09-12T07:51:23;99283.44;;;21.63;64.97
12203;BME280;6164;42.178;24.622;2022-09-12T07:53:49;99292.25;;;21.59;61.60
12203;BME280;6164;42.178;24.622;2022-09-12T07:56:16;99269.47;;;21.61;63.38
12203;BME280;6164;42.178;24.622;2022-09-12T07:58:43;99279.31;;;21.56;62.29
12203;BME280;6164;42.178;24.622;2022-09-12T08:01:11;99280.44;;;21.60;63.04
12203;BME280;6164;42.178;24.622;2022-09-12T08:03:38;99267.59;;;21.62;62.42
12203;BME280;6164;42.178;24.622;2022-09-12T08:06:07;99269.78;;;21.65;62.05
12203;BME280;6164;42.178;24.622;2022-09-12T08:08:34;99268.22;;;21.69;60.98
12203;BME280;6164;42.178;24.622;2022-09-12T08:11:01;99268.47;;;21.84;62.14
12203;BME280;6164;42.178;24.622;2022-09-12T08:13:28;99259.22;;;21.96;61.90
12203;BME280;6164;42.178;24.622;2022-09-12T08:15:58;99269.34;;;21.89;60.21
12203;BME280;6164;42.178;24.622;2022-09-12T08:18:25;99261.59;;;21.93;58.65
12203;BME280;6164;42.178;24.622;2022-09-12T08:20:55;99280.22;;;21.99;58.67
12203;BME280;6164;42.178;24.622;2022-09-12T08:23:23;99285.78;;;22.14;60.12
12203;BME280;6164;42.178;24.622;2022-09-12T08:25:50;99271.00;;;22.12;58.63
12203;BME280;6164;42.178;24.622;2022-09-12T08:28:16;99269.84;;;22.08;57.81
12203;BME280;6164;42.178;24.622;2022-09-12T08:30:43;99278.81;;;22.13;57.76
12203;BME280;6164;42.178;24.622;2022-09-12T08:33:09;99263.78;;;22.17;57.80
12203;BME280;6164;42.178;24.622;2022-09-12T08:35:36;99262.91;;;22.34;57.76
12203;BME280;6164;42.178;24.622;2022-09-12T08:38:02;99262.91;;;22.34;57.41
12203;BME280;6164;42.178;24.622;2022-09-12T08:40:30;99271.09;;;22.44;57.62
12203;BME280;6164;42.178;24.622;2022-09-12T08:42:59;99254.06;;;22.38;57.12
12203;BME280;6164;42.178;24.622;2022-09-12T08:45:28;99269.09;;;22.34;56.29
12203;BME280;6164;42.178;24.622;2022-09-12T08:47:59;99266.84;;;22.26;56.42
12203;BME280;6164;42.178;24.622;2022-09-12T08:50:28;99257.66;;;22.44;56.37
12203;BME280;6164;42.178;24.622;2022-09-12T08:52:55;99248.50;;;22.45;55.54
12203;BME280;6164;42.178;24.622;2022-09-12T08:55:25;99254.63;;;22.62;56.92
12203;BME280;6164;42.178;24.622;2022-09-12T08:57:54;99253.56;;;22.63;55.49
12203;BME280;6164;42.178;24.622;2022-09-12T09:00:20;99250.88;;;22.63;56.18
12203;BME280;6164;42.178;24.622;2022-09-12T09:02:54;99252.44;;;22.59;55.40
12203;BME280;6164;42.178;24.622;2022-09-12T09:05:28;99248.84;;;22.75;57.32
12203;BME280;6164;42.178;24.622;2022-09-12T09:08:04;99245.16;;;22.86;55.66
12203;BME280;6164;42.178;24.622;2022-09-12T09:10:35;99244.13;;;22.92;54.91
12203;BME280;6164;42.178;24.622;2022-09-12T09:13:12;99258.19;;;22.99;53.30
12203;BME280;6164;42.178;24.622;2022-09-12T09:16:03;99249.13;;;23.10;54.35
12203;BME280;6164;42.178;24.622;2022-09-12T09:18:34;99248.66;;;23.18;54.01
12203;BME280;6164;42.178;24.622;2022-09-12T09:21:02;99237.91;;;23.23;52.98
12203;BME280;6164;42.178;24.622;2022-09-12T09:23:32;99250.78;;;23.42;53.47
12203;BME280;6164;42.178;24.622;2022-09-12T09:26:00;99236.72;;;23.35;52.55
12203;BME280;6164;42.178;24.622;2022-09-12T09:28:33;99247.16;;;23.27;51.44
12203;BME280;6164;42.178;24.622;2022-09-12T09:31:01;99257.03;;;23.53;53.34
12203;BME280;6164;42.178;24.622;2022-09-12T09:33:29;99245.13;;;23.44;50.42
12203;BME280;6164;42.178;24.622;2022-09-12T09:35:59;99242.59;;;23.27;50.03
12203;BME280;6164;42.178;24.622;2022-09-12T09:38:30;99226.31;;;23.49;51.23
12203;BME280;6164;42.178;24.622;2022-09-12T09:41:03;99246.84;;;23.60;49.56
12203;BME280;6164;42.178;24.622;2022-09-12T09:43:34;99222.66;;;23.75;49.79
12203;BME280;6164;42.178;24.622;2022-09-12T09:46:02;99228.91;;;23.86;49.37
12203;BME280;6164;42.178;24.622;2022-09-12T09:48:29;99226.44;;;23.79;49.25
12203;BME280;6164;42.178;24.622;2022-09-12T09:50:57;99229.31;;;23.63;49.29
12203;BME280;6164;42.178;24.622;2022-09-12T09:53:30;99230.34;;;23.52;48.98
12203;BME280;6164;42.178;24.622;2022-09-12T09:56:00;99214.81;;;23.69;49.48
12203;BME280;6164;42.178;24.622;2022-09-12T09:58:28;99233.63;;;23.59;48.29
12203;BME280;6164;42.178;24.622;2022-09-12T10:00:58;99222.66;;;23.75;48.33
12203;BME280;6164;42.178;24.622;2022-09-12T10:03:27;99216.78;;;23.83;48.92
12203;BME280;6164;42.178;24.622;2022-09-12T10:05:56;99221.06;;;23.79;47.12
12203;BME280;6164;42.178;24.622;2022-09-12T10:08:25;99218.94;;;23.86;48.46
12203;BME280;6164;42.178;24.622;2022-09-12T10:10:53;99224.34;;;23.91;47.88
12203;BME280;6164;42.178;24.622;2022-09-12T10:13:22;99210.97;;;24.06;49.13
12203;BME280;6164;42.178;24.622;2022-09-12T10:15:54;99223.06;;;23.99;48.15
12203;BME280;6164;42.178;24.622;2022-09-12T10:18:32;99230.44;;;24.18;48.77
12203;BME280;6164;42.178;24.622;2022-09-12T10:20:59;99239.59;;;24.22;45.98
12203;BME280;6164;42.178;24.622;2022-09-12T10:23:28;99233.06;;;24.03;46.53
12203;BME280;6164;42.178;24.622;2022-09-12T10:25:58;99223.94;;;24.14;48.46
12203;BME280;6164;42.178;24.622;2022-09-12T10:28:30;99226.09;;;24.17;46.97
12203;BME280;6164;42.178;24.622;2022-09-12T10:30:57;99225.53;;;24.15;46.92
12203;BME280;6164;42.178;24.622;2022-09-12T10:33:27;99217.50;;;24.30;46.92
12203;BME280;6164;42.178;24.622;2022-09-12T10:35:55;99236.41;;;24.40;46.89
12203;BME280;6164;42.178;24.622;2022-09-12T10:38:22;99207.22;;;24.22;47.56
12203;BME280;6164;42.178;24.622;2022-09-12T10:40:56;99204.56;;;24.27;47.98
12203;BME280;6164;42.178;24.622;2022-09-12T10:43:28;99210.78;;;24.33;47.73
12203;BME280;6164;42.178;24.622;2022-09-12T10:45:55;99212.97;;;24.46;46.64
12203;BME280;6164;42.178;24.622;2022-09-12T10:48:26;99209.44;;;24.45;47.15
12203;BME280;6164;42.178;24.622;2022-09-12T10:50:55;99216.47;;;24.61;45.61
12203;BME280;6164;42.178;24.622;2022-09-12T10:53:22;99256.69;;;24.63;43.67
12203;BME280;6164;42.178;24.622;2022-09-12T10:55:56;99226.78;;;24.80;44.58
12203;BME280;6164;42.178;24.622;2022-09-12T10:58:30;99238.69;;;24.89;44.29
12203;BME280;6164;42.178;24.622;2022-09-12T11:01:01;99230.88;;;24.97;43.79
12203;BME280;6164;42.178;24.622;2022-09-12T11:03:34;99217.88;;;25.04;44.68
12203;BME280;6164;42.178;24.622;2022-09-12T11:06:06;99247.59;;;24.79;43.51
12203;BME280;6164;42.178;24.622;2022-09-12T11:08:41;99221.66;;;24.83;45.04
12203;BME280;6164;42.178;24.622;2022-09-12T11:11:14;99224.56;;;24.36;45.07
12203;BME280;6164;42.178;24.622;2022-09-12T11:13:53;99202.94;;;24.26;45.89
12203;BME280;6164;42.178;24.622;2022-09-12T11:16:25;99191.38;;;24.46;46.76
12203;BME280;6164;42.178;24.622;2022-09-12T11:19:02;99205.66;;;24.36;45.73
12203;BME280;6164;42.178;24.622;2022-09-12T11:21:39;99232.66;;;24.41;44.00
12203;BME280;6164;42.178;24.622;2022-09-12T11:24:18;99225.88;;;24.34;43.17
12203;BME280;6164;42.178;24.622;2022-09-12T11:29:37;99205.66;;;24.51;45.78
12203;BME280;6164;42.178;24.622;2022-09-12T11:34:50;99178.63;;;24.11;47.67
12203;BME280;6164;42.178;24.622;2022-09-12T11:37:28;99194.53;;;24.08;47.48
12203;BME280;6164;42.178;24.622;2022-09-12T11:40:03;99179.47;;;24.37;47.98
12203;BME280;6164;42.178;24.622;2022-09-12T11:42:34;99181.38;;;24.46;46.45
12203;BME280;6164;42.178;24.622;2022-09-12T11:45:06;99187.31;;;24.43;44.92
12203;BME280;6164;42.178;24.622;2022-09-12T11:47:38;99184.91;;;24.52;45.57
12203;BME280;6164;42.178;24.622;2022-09-12T11:50:13;99194.06;;;24.46;44.81
12203;BME280;6164;42.178;24.622;2022-09-12T11:52:42;99198.69;;;24.65;44.67
12203;BME280;6164;42.178;24.622;2022-09-12T11:55:10;99188.44;;;24.93;44.33
12203;BME280;6164;42.178;24.622;2022-09-12T11:57:42;99193.84;;;24.98;43.52
12203;BME280;6164;42.178;24.622;2022-09-12T12:00:14;99185.97;;;25.31;43.92
12203;BME280;6164;42.178;24.622;2022-09-12T12:02:42;99204.09;;;25.41;42.91
12203;BME280;6164;42.178;24.622;2022-09-12T12:05:15;99209.00;;;24.94;42.37
12203;BME280;6164;42.178;24.622;2022-09-12T12:07:48;99182.53;;;24.71;43.91
12203;BME280;6164;42.178;24.622;2022-09-12T12:10:24;99173.34;;;24.72;44.38
12203;BME280;6164;42.178;24.622;2022-09-12T12:12:51;99178.97;;;24.55;44.40
12203;BME280;6164;42.178;24.622;2022-09-12T12:15:19;99158.44;;;24.44;45.42
12203;BME280;6164;42.178;24.622;2022-09-12T12:17:58;99139.56;;;24.44;46.58
12203;BME280;6164;42.178;24.622;2022-09-12T12:20:28;99177.91;;;24.91;42.79
12203;BME280;6164;42.178;24.622;2022-09-12T12:22:56;99197.63;;;25.47;41.39
12203;BME280;6164;42.178;24.622;2022-09-12T12:25:23;99211.63;;;25.59;40.80
12203;BME280;6164;42.178;24.622;2022-09-12T12:27:52;99209.22;;;25.27;41.71
12203;BME280;6164;42.178;24.622;2022-09-12T12:33:06;99163.31;;;24.62;43.83
12203;BME280;6164;42.178;24.622;2022-09-12T12:36:01;99169.31;;;24.84;44.00
12203;BME280;6164;42.178;24.622;2022-09-12T12:38:29;99180.09;;;24.84;42.49
12203;BME280;6164;42.178;24.622;2022-09-12T12:43:38;99165.25;;;24.82;43.67
12203;BME280;6164;42.178;24.622;2022-09-12T12:46:08;99167.13;;;24.76;43.28
12203;BME280;6164;42.178;24.622;2022-09-12T12:51:28;99149.53;;;24.38;44.74
12203;BME280;6164;42.178;24.622;2022-09-12T12:53:57;99136.56;;;24.25;45.71
12203;BME280;6164;42.178;24.622;2022-09-12T12:56:25;99132.81;;;24.26;45.88
12203;BME280;6164;42.178;24.622;2022-09-12T12:58:56;99131.72;;;24.37;45.65
12203;BME280;6164;42.178;24.622;2022-09-12T13:01:24;99148.47;;;24.39;44.43
12203;BME280;6164;42.178;24.622;2022-09-12T13:03:52;99148.47;;;24.49;44.91
12203;BME280;6164;42.178;24.622;2022-09-12T13:06:22;99148.22;;;24.51;44.83
12203;BME280;6164;42.178;24.622;2022-09-12T13:08:54;99144.16;;;24.58;44.80
12203;BME280;6164;42.178;24.622;2022-09-12T13:11:28;99139.28;;;24.45;45.51
12203;BME280;6164;42.178;24.622;2022-09-12T13:13:56;99136.84;;;24.34;45.58
12203;BME280;6164;42.178;24.622;2022-09-12T13:16:33;99133.88;;;24.40;46.19
12203;BME280;6164;42.178;24.622;2022-09-12T13:19:01;99131.72;;;24.32;46.12
12203;BME280;6164;42.178;24.622;2022-09-12T13:21:29;99131.72;;;24.27;46.21
12203;BME280;6164;42.178;24.622;2022-09-12T13:23:59;99140.13;;;24.76;45.70
12203;BME280;6164;42.178;24.622;2022-09-12T13:26:32;99154.44;;;24.92;44.00
12203;BME280;6164;42.178;24.622;2022-09-12T13:29:09;99142.25;;;25.09;45.18
12203;BME280;6164;42.178;24.622;2022-09-12T13:31:37;99145.50;;;24.91;45.09